Time;durP1;ratioP1;P1;durP2;ratioP2;P2;SDS_P1;SDS_P2;PMS_P1;PMS_P2;Temp;Humidity;BMP_temperature;BMP_pressure;BME280_temperature;BME280_humidity;BME280_pressure;Samples;Min_cycle;Max_cycle;Signal;HPM_P1;HPM_P2
2023/09/10 00:01:43;;;;;;;13.50;4.20;;;;;;;5.53;100.00;101782.65;105626;1254;60463;-51
2023/09/10 00:04:11;;;;;;;6.30;4.40;;;;;;;5.53;100.00;101778.70;105701;1255;59681;-50
2023/09/10 00:06:40;;;;;;;13.70;4.10;;;;;;;5.52;100.00;101778.17;105671;1253;71903;-51
2023/09/10 00:09:09;;;;;;;9.70;4.10;;;;;;;5.51;100.00;101781.39;105655;1258;64380;-49
2023/09/10 00:11:37;;;;;;;7.40;3.60;;;;;;;5.48;100.00;101779.97;105660;1258;72629;-50
2023/09/10 00:14:05;;;;;;;6.40;3.50;;;;;;;5.50;100.00;101777.77;105702;1254;59856;-51
2023/09/10 00:16:32;;;;;;;5.70;3.40;;;;;;;5.55;100.00;101773.80;105667;1258;59536;-49
2023/09/10 00:19:00;;;;;;;9.00;3.60;;;;;;;5.57;100.00;101773.67;105656;1253;71746;-51
2023/09/10 00:21:28;;;;;;;10.30;4.00;;;;;;;5.56;100.00;101771.58;105666;1253;64308;-50
2023/09/10 00:23:56;;;;;;;6.80;3.70;;;;;;;5.51;100.00;101770.10;105694;1254;71699;-51
2023/09/10 00:26:26;;;;;;;5.40;3.00;;;;;;;5.51;100.00;101768.38;105657;1253;61658;-50
2023/09/10 00:28:53;;;;;;;5.50;3.10;;;;;;;5.58;100.00;101770.79;105695;1255;59735;-49
2023/09/10 00:31:21;;;;;;;4.50;3.10;;;;;;;5.64;100.00;101762.16;105650;1254;71882;-50
2023/09/10 00:33:49;;;;;;;8.80;3.50;;;;;;;5.64;100.00;101759.77;105661;1253;64319;-50
2023/09/10 00:36:17;;;;;;;4.70;3.30;;;;;;;5.60;100.00;101759.88;105656;1254;71479;-49
2023/09/10 00:38:44;;;;;;;5.10;3.40;;;;;;;5.58;100.00;101760.34;105652;1255;60544;-50
2023/09/10 00:41:12;;;;;;;3.30;3.00;;;;;;;5.58;100.00;101759.64;105666;1254;60332;-50
2023/09/10 00:45:23;;;;;;;6.10;3.70;;;;;;;5.59;100.00;101775.95;102787;1290;599621;-50
2023/09/10 00:47:50;;;;;;;6.70;3.10;;;;;;;5.54;100.00;101757.33;105149;1270;59328;-52
2023/09/10 00:50:18;;;;;;;4.40;3.00;;;;;;;5.50;100.00;101759.79;105066;1267;59959;-52
2023/09/10 00:52:49;;;;;;;3.80;3.10;;;;;;;5.47;100.00;101760.77;104847;1273;71125;-51
2023/09/10 00:55:17;;;;;;;7.10;3.10;;;;;;;5.43;100.00;101760.83;104903;1270;64438;-51
2023/09/10 00:57:44;;;;;;;8.50;3.50;;;;;;;5.37;100.00;101758.81;105158;1269;72306;-52
2023/09/10 01:00:13;;;;;;;5.80;3.50;;;;;;;5.33;100.00;101757.69;105118;1264;232138;-48
2023/09/10 01:02:43;;;;;;;10.50;3.50;;;;;;;5.32;100.00;101756.98;105231;1264;59397;-47
2023/09/10 01:05:11;;;;;;;5.30;3.40;;;;;;;5.33;100.00;101756.66;105189;1262;70950;-50
2023/09/10 01:07:39;;;;;;;5.10;2.80;;;;;;;5.32;100.00;101757.16;105249;1267;63087;-50
2023/09/10 01:10:08;;;;;;;9.10;3.70;;;;;;;5.27;100.00;101754.81;105262;1265;71413;-50
2023/09/10 01:12:47;;;;;;;7.80;4.00;;;;;;;5.21;100.00;101755.88;105219;1265;59848;-50
2023/09/10 01:15:28;;;;;;;3.80;3.10;;;;;;;5.13;100.00;101753.11;105638;1254;59970;-52
2023/09/10 01:18:34;;;;;;;7.00;3.70;;;;;;;5.09;100.00;101755.39;105704;1256;71973;-50
2023/09/10 01:21:25;;;;;;;9.20;3.80;;;;;;;5.08;100.00;101752.63;105712;1259;63243;-50
2023/09/10 01:24:12;;;;;;;5.80;3.30;;;;;;;5.07;100.00;101755.16;105693;1260;71408;-51
2023/09/10 01:26:41;;;;;;;8.30;3.50;;;;;;;5.04;100.00;101751.34;105661;1257;59736;-50
2023/09/10 01:29:10;;;;;;;4.40;3.50;;;;;;;5.01;100.00;101750.23;105670;1258;59938;-48
2023/09/10 01:31:38;;;;;;;7.70;3.10;;;;;;;5.00;100.00;101750.90;105665;1254;72973;-50
2023/09/10 01:34:06;;;;;;;8.80;3.00;;;;;;;4.99;100.00;101745.90;105530;1254;64508;-50
2023/09/10 01:36:36;;;;;;;5.60;3.60;;;;;;;5.00;100.00;101747.82;105668;1257;71026;-49
2023/09/10 01:39:36;;;;;;;5.60;3.30;;;;;;;5.02;100.00;101748.20;105714;1260;60199;-49
2023/09/10 01:42:05;;;;;;;7.70;4.00;;;;;;;5.01;100.00;101749.55;105729;1254;59977;-50
2023/09/10 01:44:34;;;;;;;9.30;3.40;;;;;;;5.00;100.00;101747.83;105608;1256;71790;-49
2023/09/10 01:47:02;;;;;;;12.60;4.50;;;;;;;4.98;100.00;101745.71;105602;1264;63300;-51
2023/09/10 01:49:30;;;;;;;7.30;4.20;;;;;;;4.95;100.00;101748.90;105414;1257;72645;-51
2023/09/10 01:51:58;;;;;;;11.50;4.10;;;;;;;4.94;100.00;101750.58;105400;1260;59720;-51
2023/09/10 01:54:27;;;;;;;8.10;4.00;;;;;;;4.93;100.00;101748.51;105589;1263;59615;-51
2023/09/10 01:56:54;;;;;;;9.80;3.70;;;;;;;4.93;100.00;101751.06;105490;1264;70955;-53
2023/09/10 01:59:22;;;;;;;9.90;4.10;;;;;;;4.92;100.00;101750.52;105416;1263;63150;-50
2023/09/10 02:01:51;;;;;;;9.30;3.60;;;;;;;4.91;100.00;101747.92;105357;1258;72658;-51
2023/09/10 02:04:18;;;;;;;10.90;4.30;;;;;;;4.93;100.00;101748.13;105469;1263;60380;-49
2023/09/10 02:06:48;;;;;;;7.20;3.90;;;;;;;4.96;100.00;101743.45;105517;1264;59590;-51
2023/09/10 02:09:15;;;;;;;12.00;4.50;;;;;;;5.02;100.00;101742.21;105526;1260;71321;-50
2023/09/10 02:11:43;;;;;;;6.40;4.20;;;;;;;5.05;100.00;101739.39;105242;1265;63431;-49
2023/09/10 02:14:11;;;;;;;10.50;5.00;;;;;;;5.08;100.00;101739.80;105518;1263;72674;-50
2023/09/10 02:16:39;;;;;;;9.60;4.40;;;;;;;5.11;100.00;101735.93;105257;1264;60424;-50
2023/09/10 02:19:07;;;;;;;10.70;4.50;;;;;;;5.17;100.00;101735.05;105245;1263;59760;-50
2023/09/10 02:21:35;;;;;;;7.30;4.70;;;;;;;5.21;100.00;101733.43;105488;1263;70807;-48
2023/09/10 02:24:03;;;;;;;10.20;5.50;;;;;;;5.20;100.00;101730.33;105538;1258;62858;-50
2023/09/10 02:26:31;;;;;;;19.20;5.60;;;;;;;5.18;100.00;101727.06;105529;1263;70857;-51
2023/09/10 02:28:59;;;;;;;11.60;5.10;;;;;;;5.15;100.00;101728.69;105505;1264;60457;-50
2023/09/10 03:30:57;;;;;;;18.80;5.00;;;;;;;5.16;100.00;101752.84;102636;1292;601000;-50
2023/09/10 03:33:26;;;;;;;12.20;4.80;;;;;;;5.20;100.00;101744.71;104810;1268;59422;-50
2023/09/10 03:35:54;;;;;;;8.40;5.20;;;;;;;5.24;100.00;101746.52;104796;1265;59413;-50
2023/09/10 03:38:22;;;;;;;15.90;5.30;;;;;;;5.26;100.00;101749.83;104767;1265;72222;-51
2023/09/10 03:40:50;;;;;;;12.40;5.40;;;;;;;5.28;100.00;101751.40;104844;1266;63119;-49
2023/09/10 03:43:18;;;;;;;12.90;5.80;;;;;;;5.29;100.00;101752.64;104766;1269;71725;-50
2023/09/10 03:45:49;;;;;;;15.40;6.20;;;;;;;5.33;100.00;101753.77;104946;1266;61122;-49
2023/09/10 03:48:17;;;;;;;10.80;5.40;;;;;;;5.39;100.00;101751.31;104884;1266;59219;-50
2023/09/10 03:50:45;;;;;;;12.40;5.90;;;;;;;5.44;100.00;101747.85;105105;1268;71037;-49
2023/09/10 03:53:13;;;;;;;8.90;5.80;;;;;;;5.48;100.00;101749.66;105096;1266;64461;-50
2023/09/10 03:55:41;;;;;;;13.40;5.70;;;;;;;5.54;100.00;101745.16;105111;1266;72719;-49
2023/09/10 03:58:10;;;;;;;16.20;7.50;;;;;;;5.60;100.00;101747.86;104926;1265;61634;-49
2023/09/10 04:00:37;;;;;;;12.70;6.00;;;;;;;5.62;100.00;101747.23;105547;1259;59972;-51
2023/09/10 04:03:05;;;;;;;12.50;5.70;;;;;;;5.66;100.00;101748.52;105482;1258;73039;-50
2023/09/10 04:05:33;;;;;;;19.00;6.20;;;;;;;5.73;100.00;101749.71;105547;1261;64424;-51
2023/09/10 04:08:01;;;;;;;11.80;5.70;;;;;;;5.81;100.00;101743.38;105400;1263;71365;-49
2023/09/10 04:10:29;;;;;;;11.80;6.20;;;;;;;5.91;100.00;101747.19;105537;1261;61706;-49
2023/09/10 04:12:57;;;;;;;17.90;6.40;;;;;;;6.02;100.00;101746.57;105547;1262;59623;-50
2023/09/10 04:15:24;;;;;;;19.00;9.50;;;;;;;6.16;100.00;101744.98;105549;1258;71788;-49
2023/09/10 04:17:52;;;;;;;18.40;8.10;;;;;;;6.35;100.00;101743.66;105412;1265;63231;-50
2023/09/10 04:20:21;;;;;;;16.00;6.50;;;;;;;6.58;100.00;101742.38;105307;1258;72631;-49
2023/09/10 04:22:48;;;;;;;15.30;5.90;;;;;;;6.83;100.00;101743.67;105558;1262;60402;-51
2023/09/10 04:25:16;;;;;;;13.50;5.50;;;;;;;7.04;100.00;101743.19;105588;1259;60018;-54
2023/09/10 04:27:44;;;;;;;18.80;6.00;;;;;;;7.26;100.00;101746.96;105388;1262;73153;-50
2023/09/10 04:30:12;;;;;;;18.00;5.20;;;;;;;7.49;100.00;101749.21;105377;1265;64387;-49
2023/09/10 04:32:40;;;;;;;17.10;5.20;;;;;;;7.70;100.00;101753.45;105400;1264;71721;-55
2023/09/10 04:35:09;;;;;;;16.20;5.10;;;;;;;7.91;100.00;101759.23;105436;1260;61712;-50
2023/09/10 04:37:37;;;;;;;16.60;5.60;;;;;;;8.10;100.00;101764.99;105408;1257;60185;-50
2023/09/10 04:40:07;;;;;;;14.60;5.30;;;;;;;8.32;100.00;101772.15;105332;1264;73001;-49
2023/09/10 04:42:34;;;;;;;12.70;5.10;;;;;;;8.52;100.00;101778.24;105301;1265;63400;-51
2023/09/10 04:45:04;;;;;;;13.20;4.80;;;;;;;8.67;100.00;101795.80;105363;1259;71703;-49
2023/09/10 04:47:32;;;;;;;17.20;5.50;;;;;;;8.80;100.00;101815.73;105342;1259;60630;-49
2023/09/10 04:50:00;;;;;;;10.60;5.50;;;;;;;8.90;100.00;101843.39;105483;1259;59529;-49
2023/09/10 04:52:29;;;;;;;20.20;5.80;;;;;;;8.92;100.00;101882.14;105450;1263;73167;-51
2023/09/10 04:54:57;;;;;;;22.60;5.70;;;;;;;8.87;100.00;101928.06;105430;1259;64496;-49
2023/09/10 04:57:26;;;;;;;20.10;6.10;;;;;;;8.80;100.00;101986.32;105427;1260;72652;-51
2023/09/10 04:59:53;;;;;;;12.40;5.00;;;;;;;8.71;100.00;102047.48;105424;1259;59905;-50
2023/09/10 05:02:21;;;;;;;19.90;5.10;;;;;;;8.68;100.00;102101.98;105397;1264;61231;-53
2023/09/10 05:04:49;;;;;;;11.50;5.90;;;;;;;8.67;100.00;102136.06;109135;1256;72961;-49
2023/09/10 05:07:17;;;;;;;16.50;5.30;;;;;;;8.67;100.00;102154.29;109102;1256;63222;-50
2023/09/10 05:09:45;;;;;;;18.00;5.20;;;;;;;8.67;100.00;102153.44;109096;1256;72607;-51
2023/09/10 05:12:13;;;;;;;19.00;5.30;;;;;;;8.68;100.00;102144.84;109101;1256;61865;-51
2023/09/10 05:14:41;;;;;;;12.10;4.90;;;;;;;8.71;100.00;102135.77;109225;1256;58771;-50
2023/09/10 05:17:09;;;;;;;12.50;5.40;;;;;;;8.74;100.00;102115.86;109080;1255;70809;-52
2023/09/10 05:19:37;;;;;;;12.30;5.40;;;;;;;8.76;100.00;102094.55;109102;1255;64602;-50
2023/09/10 05:22:06;;;;;;;5.60;4.50;;;;;;;8.82;100.00;102072.08;109087;1256;71426;-51
2023/09/10 05:24:33;;;;;;;9.00;4.60;;;;;;;8.87;100.00;102052.19;109122;1256;60458;-50
2023/09/10 05:29:59;;;;;;;9.20;4.20;;;;;;;9.06;100.00;101993.02;103711;1283;600350;-50
2023/09/10 05:32:27;;;;;;;7.20;4.00;;;;;;;9.11;100.00;101950.38;105192;1265;59709;-52
2023/09/10 05:34:56;;;;;;;8.00;4.90;;;;;;;9.20;100.00;101923.77;105206;1260;59242;-50
2023/09/10 05:37:24;;;;;;;12.90;4.70;;;;;;;9.29;100.00;101909.40;105215;1263;72263;-50
2023/09/10 05:39:52;;;;;;;6.00;4.20;;;;;;;9.39;100.00;101902.09;105236;1263;63101;-51
2023/09/10 05:42:21;;;;;;;8.40;5.00;;;;;;;9.51;100.00;101889.27;105241;1261;72310;-52
2023/09/10 05:44:52;;;;;;;14.40;4.50;;;;;;;9.62;100.00;101869.20;105233;1261;243203;-52
2023/09/10 05:47:20;;;;;;;10.80;5.30;;;;;;;9.75;100.00;101844.48;105240;1259;59994;-50
2023/09/10 05:49:50;;;;;;;8.80;4.40;;;;;;;9.86;100.00;101804.89;105396;1263;69710;-52
2023/09/10 05:52:18;;;;;;;10.70;4.40;;;;;;;9.98;100.00;101762.20;105363;1261;63315;-50
2023/09/10 05:54:46;;;;;;;10.90;4.50;;;;;;;10.12;100.00;101719.14;105294;1258;72648;-52
2023/09/10 05:57:14;;;;;;;6.70;4.00;;;;;;;10.26;100.00;101640.52;105366;1263;60132;-52
2023/09/10 05:59:42;;;;;;;12.00;3.90;;;;;;;10.38;100.00;101572.56;105534;1261;59626;-50
2023/09/10 06:02:09;;;;;;;11.20;3.80;;;;;;;10.52;100.00;101542.89;105530;1260;72095;-49
2023/09/10 06:04:38;;;;;;;5.70;3.50;;;;;;;10.65;100.00;101539.42;105540;1259;63547;-49
2023/09/10 06:07:05;;;;;;;12.10;3.30;;;;;;;10.80;100.00;101535.08;105353;1263;71393;-49
2023/09/10 06:09:33;;;;;;;3.40;2.70;;;;;;;10.99;100.00;101503.60;105486;1258;59608;-51
2023/09/10 06:12:02;;;;;;;4.90;2.80;;;;;;;11.16;100.00;101426.83;105549;1259;59955;-50
2023/09/10 06:14:33;;;;;;;10.00;2.90;;;;;;;11.33;100.00;101357.45;105373;1263;72070;-50
2023/09/10 06:17:02;;;;;;;3.30;2.50;;;;;;;11.49;100.00;101282.65;105506;1261;63487;-50
2023/09/10 06:19:30;;;;;;;4.10;2.60;;;;;;;11.65;100.00;101246.71;105503;1261;72687;-50
2023/09/10 06:21:58;;;;;;;8.50;2.40;;;;;;;11.76;100.00;101224.48;105507;1261;60155;-50
2023/09/10 06:24:26;;;;;;;8.10;2.60;;;;;;;11.91;100.00;101215.13;105307;1261;60243;-51
2023/09/10 06:26:54;;;;;;;4.20;2.20;;;;;;;12.09;100.00;101206.83;105211;1261;73019;-49
2023/09/10 06:29:24;;;;;;;15.30;2.30;;;;;;;12.26;100.00;101207.13;105296;1260;63135;-51
2023/09/10 06:31:52;;;;;;;2.30;2.00;;;;;;;12.44;100.00;101209.47;105238;1266;72690;-49
2023/09/10 06:34:20;;;;;;;3.00;1.80;;;;;;;12.62;100.00;101212.33;105209;1260;60003;-52
2023/09/10 06:36:47;;;;;;;4.00;1.50;;;;;;;12.82;100.00;101233.50;105314;1264;59542;-50
2023/09/10 06:39:16;;;;;;;7.00;2.00;;;;;;;13.01;100.00;101276.00;105282;1260;72983;-52
2023/09/10 06:41:43;;;;;;;5.70;1.60;;;;;;;13.16;100.00;101322.91;105253;1261;63137;-50
2023/09/10 06:44:11;;;;;;;6.80;1.60;;;;;;;13.29;100.00;101347.84;105238;1263;72669;-51
2023/09/10 06:46:39;;;;;;;2.20;1.20;;;;;;;13.43;100.00;101405.54;105252;1262;59717;-50
2023/09/10 06:49:07;;;;;;;1.20;1.10;;;;;;;13.53;100.00;101443.38;105266;1264;59640;-49
2023/09/10 06:51:35;;;;;;;3.60;1.20;;;;;;;13.62;100.00;101467.00;105272;1264;71847;-51
2023/09/10 06:54:02;;;;;;;1.80;1.60;;;;;;;13.74;100.00;101495.25;105246;1260;63213;-49
2023/09/10 06:56:30;;;;;;;3.80;1.20;;;;;;;13.89;100.00;101513.60;105181;1261;72682;-52
2023/09/10 06:58:58;;;;;;;5.00;1.10;;;;;;;14.06;100.00;101513.85;105224;1263;59669;-52
2023/09/10 07:01:26;;;;;;;1.40;1.30;;;;;;;14.24;100.00;101522.59;105199;1264;59783;-50
2023/09/10 07:03:57;;;;;;;8.30;1.20;;;;;;;14.41;98.75;101535.84;105241;1261;72388;-53
2023/09/10 07:06:25;;;;;;;2.70;1.00;;;;;;;14.60;89.03;101542.30;105642;1256;66703;-53
2023/09/10 07:08:53;;;;;;;4.50;0.90;;;;;;;14.75;79.09;101529.18;105600;1260;72684;-51
2023/09/10 07:11:21;;;;;;;5.60;1.30;;;;;;;14.88;75.91;101539.73;105603;1256;60029;-49
2023/09/10 07:13:49;;;;;;;9.20;4.10;;;;;;;15.01;73.56;101534.61;105604;1260;59624;-50
2023/09/10 07:16:17;;;;;;;5.10;2.00;;;;;;;15.12;71.91;101534.58;105611;1257;73012;-50
2023/09/10 07:18:45;;;;;;;5.40;1.70;;;;;;;15.26;69.17;101499.15;105600;1256;63108;-51
2023/09/10 07:21:12;;;;;;;4.00;1.90;;;;;;;15.37;68.14;101501.87;105581;1258;72607;-49
2023/09/10 07:23:41;;;;;;;3.70;1.00;;;;;;;15.48;67.14;101496.77;105645;1257;59755;-48
2023/09/10 07:26:08;;;;;;;4.50;0.90;;;;;;;15.59;66.19;101487.30;105856;1256;59625;-52
2023/09/10 07:28:37;;;;;;;3.40;1.10;;;;;;;15.67;65.43;101475.11;105760;1253;72980;-50
2023/09/10 07:31:07;;;;;;;7.40;0.80;;;;;;;15.75;64.54;101465.70;105828;1254;63110;-50
2023/09/10 07:33:36;;;;;;;7.90;1.20;;;;;;;15.87;64.95;101493.63;105807;1253;71406;-49
2023/09/10 07:36:04;;;;;;;2.60;0.90;;;;;;;15.96;62.73;101402.72;105864;1257;59723;-49
2023/09/10 07:38:32;;;;;;;5.00;1.00;;;;;;;16.03;62.67;101431.29;105948;1252;59999;-49
2023/09/10 07:41:00;;;;;;;1.50;1.10;;;;;;;16.14;62.72;101451.03;105753;1252;71797;-51
2023/09/10 07:43:28;;;;;;;2.90;1.10;;;;;;;16.27;62.49;101452.77;105916;1253;63112;-50
2023/09/10 07:45:56;;;;;;;3.90;0.80;;;;;;;16.35;61.62;101405.54;105753;1255;71734;-51
2023/09/10 07:48:24;;;;;;;1.50;1.30;;;;;;;16.38;61.51;101423.89;105775;1254;59496;-50
2023/09/10 07:50:56;;;;;;;4.60;1.20;;;;;;;16.45;61.69;101455.25;105790;1254;60722;-51
2023/09/10 07:53:23;;;;;;;2.40;1.40;;;;;;;16.60;60.45;101371.39;105835;1254;71764;-50
2023/09/10 07:55:52;;;;;;;6.20;2.60;;;;;;;16.72;59.76;101337.42;105913;1254;64395;-50
2023/09/10 07:58:20;;;;;;;1.10;1.00;;;;;;;16.82;60.06;101375.61;105777;1257;72722;-51
2023/09/10 08:00:47;;;;;;;11.30;1.60;;;;;;;16.89;59.94;101387.95;105895;1256;60511;-51
2023/09/10 08:03:15;;;;;;;7.30;1.60;;;;;;;16.96;60.08;101409.38;105766;1254;59992;-54
2023/09/10 08:05:46;;;;;;;7.60;3.70;;;;;;;17.15;59.34;101353.21;105793;1256;73632;-51
2023/09/10 08:08:14;;;;;;;2.60;1.20;;;;;;;17.30;58.05;101245.30;105798;1253;63308;-50
2023/09/10 08:10:43;;;;;;;1.60;1.30;;;;;;;17.46;58.30;101289.06;105798;1256;72553;-49
2023/09/10 08:13:12;;;;;;;2.30;1.40;;;;;;;17.64;58.36;101306.92;105943;1252;59718;-50
2023/09/10 08:15:43;;;;;;;6.40;0.90;;;;;;;17.77;56.11;101097.89;105893;1252;59979;-51
2023/09/10 08:18:11;;;;;;;4.80;1.20;;;;;;;17.85;56.25;101141.25;105760;1252;72979;-50
2023/09/10 08:20:40;;;;;;;4.10;1.20;;;;;;;17.97;55.04;101037.45;105934;1253;63120;-52
2023/09/10 08:23:08;;;;;;;4.30;1.50;;;;;;;18.00;55.81;101141.25;105868;1256;71413;-50
2023/09/10 08:25:36;;;;;;;4.80;2.10;;;;;;;18.13;56.45;101216.69;105819;1256;59813;-51
2023/09/10 08:28:04;;;;;;;1.80;1.70;;;;;;;18.23;55.30;101108.04;105860;1259;59692;-51
2023/09/10 08:30:31;;;;;;;2.80;2.30;;;;;;;18.31;54.28;101018.23;105954;1254;71760;-50
2023/09/10 08:32:59;;;;;;;2.00;1.10;;;;;;;18.27;54.52;101049.67;105910;1253;63744;-52
2023/09/10 08:35:42;;;;;;;4.50;0.70;;;;;;;18.38;54.01;101010.96;105804;1254;71382;-51
2023/09/10 08:38:10;;;;;;;3.20;0.80;;;;;;;18.51;52.75;100888.48;105869;1254;60990;-52
2023/09/10 08:40:56;;;;;;;3.90;1.40;;;;;;;18.56;53.42;100962.55;105842;1254;59529;-52
2023/09/10 08:43:31;;;;;;;3.80;0.90;;;;;;;18.78;53.57;101007.55;105806;1254;71736;-51
2023/09/10 08:45:58;;;;;;;0.60;0.50;;;;;;;18.93;51.84;100812.44;105895;1253;63654;-51
2023/09/10 08:48:26;;;;;;;1.40;0.80;;;;;;;19.00;52.01;100835.73;105897;1256;70368;-49
2023/09/10 08:50:54;;;;;;;2.50;1.50;;;;;;;19.13;52.53;100887.93;105716;1254;59826;-50
2023/09/10 08:53:23;;;;;;;2.00;0.80;;;;;;;19.29;51.94;100860.94;105918;1256;59637;-52
2023/09/10 08:55:50;;;;;;;2.70;0.80;;;;;;;19.35;51.24;100769.14;105684;1253;71786;-50
2023/09/10 08:58:19;;;;;;;4.50;1.10;;;;;;;19.39;50.91;100727.80;105760;1259;64447;-50
2023/09/10 09:00:46;;;;;;;3.20;0.70;;;;;;;19.48;50.57;100692.54;105861;1256;71376;-51
2023/09/10 09:03:15;;;;;;;3.90;0.90;;;;;;;19.53;50.29;100666.39;105813;1254;60009;-51
2023/09/10 09:05:43;;;;;;;6.90;1.30;;;;;;;19.52;50.47;100705.97;105870;1252;59551;-52
2023/09/10 09:08:15;;;;;;;3.30;0.90;;;;;;;19.56;50.17;100681.64;105920;1256;72127;-51
2023/09/10 09:10:44;;;;;;;3.90;0.80;;;;;;;19.63;49.21;100574.32;105883;1254;63200;-51
2023/09/10 09:13:12;;;;;;;3.00;0.60;;;;;;;19.65;49.23;100562.34;105903;1254;71392;-50
2023/09/10 09:15:40;;;;;;;1.40;0.60;;;;;;;19.59;50.13;100694.64;105646;1254;60027;-51
2023/09/10 09:18:08;;;;;;;8.90;1.10;;;;;;;19.78;50.23;100724.27;105851;1254;59999;-52
2023/09/10 09:20:37;;;;;;;2.40;0.80;;;;;;;19.84;49.80;100697.49;105895;1254;71745;-51
2023/09/10 09:23:16;;;;;;;6.70;0.90;;;;;;;19.86;49.27;100599.02;105707;1254;63013;-50
2023/09/10 09:25:44;;;;;;;4.10;0.70;;;;;;;19.88;49.16;100602.73;105858;1260;72576;-52
2023/09/10 09:28:13;;;;;;;5.20;0.90;;;;;;;19.92;49.23;100608.66;105798;1254;59784;-57
2023/09/10 09:30:40;;;;;;;2.50;1.00;;;;;;;20.04;49.52;100644.48;105819;1254;59659;-50
2023/09/10 09:33:08;;;;;;;4.80;0.80;;;;;;;20.26;49.53;100656.89;105852;1254;72976;-54
2023/09/10 09:35:36;;;;;;;1.20;0.80;;;;;;;20.34;49.82;100666.80;105721;1253;63180;-52
2023/09/10 09:38:16;;;;;;;1.40;1.30;;;;;;;20.41;49.18;100648.70;105938;1254;71424;-52
2023/09/10 09:40:47;;;;;;;0.70;0.70;;;;;;;20.51;48.71;100535.98;105916;1252;60440;-52
2023/09/10 09:43:15;;;;;;;0.90;0.60;;;;;;;20.69;48.94;100581.90;105840;1259;60612;-53
2023/09/10 09:45:47;;;;;;;1.30;0.80;;;;;;;20.87;48.69;100557.71;105875;1254;72640;-51
2023/09/10 09:48:15;;;;;;;2.00;1.20;;;;;;;20.92;48.62;100534.64;105835;1253;63276;-51
2023/09/10 09:50:45;;;;;;;5.20;1.30;;;;;;;21.19;48.69;100571.39;105656;1259;72610;-54
2023/09/10 09:53:13;;;;;;;2.10;1.20;;;;;;;21.31;48.25;100485.59;105922;1254;60420;-52
2023/09/10 09:55:44;;;;;;;5.60;2.00;;;;;;;21.18;47.30;100370.98;105827;1253;60510;-53
2023/09/10 09:58:12;;;;;;;2.10;1.60;;;;;;;21.13;46.80;100314.77;105827;1253;72556;-53
2023/09/10 10:00:40;;;;;;;1.90;1.80;;;;;;;21.11;48.12;100454.02;105872;1254;64327;-52
2023/09/10 10:03:07;;;;;;;4.90;1.60;;;;;;;21.34;48.13;100500.65;105917;1254;71384;-51
2023/09/10 10:05:35;;;;;;;9.80;2.40;;;;;;;21.49;48.40;100512.16;105904;1255;60533;-52
2023/09/10 10:08:04;;;;;;;2.60;1.90;;;;;;;21.51;48.19;100520.45;105712;1259;60856;-51
2023/09/10 10:10:32;;;;;;;2.60;1.20;;;;;;;21.49;47.46;100425.33;105863;1252;72525;-53
2023/09/10 10:13:00;;;;;;;4.00;1.20;;;;;;;21.29;47.54;100437.95;105687;1259;63400;-52
2023/09/10 10:15:27;;;;;;;2.70;1.60;;;;;;;21.04;48.63;100573.34;105901;1254;71413;-52
2023/09/10 10:17:56;;;;;;;2.80;1.40;;;;;;;21.00;48.12;100557.11;105870;1257;60502;-51
2023/09/10 10:20:24;;;;;;;5.90;1.90;;;;;;;20.90;48.87;100639.44;105928;1256;60367;-52
2023/09/10 10:22:52;;;;;;;4.30;2.50;;;;;;;20.88;48.69;100643.06;105722;1253;72598;-52
2023/09/10 10:25:19;;;;;;;12.00;5.50;;;;;;;20.93;48.83;100667.66;105879;1257;64353;-52
2023/09/10 10:27:47;;;;;;;14.00;8.20;;;;;;;20.94;48.19;100614.67;105866;1256;71004;-51
2023/09/10 10:30:14;;;;;;;14.40;9.50;;;;;;;20.72;48.14;100567.88;105885;1254;60509;-52
2023/09/10 10:32:42;;;;;;;8.00;5.70;;;;;;;20.63;49.25;100729.15;105823;1254;61919;-52
2023/09/10 10:35:10;;;;;;;11.10;7.30;;;;;;;20.65;49.42;100763.21;105838;1257;74163;-53
2023/09/10 10:37:54;;;;;;;10.00;5.30;;;;;;;20.66;50.48;100907.27;105754;1258;64426;-52
2023/09/10 10:40:30;;;;;;;3.80;3.10;;;;;;;20.90;50.48;100922.71;105881;1252;72860;-51
2023/09/10 10:43:20;;;;;;;6.60;2.60;;;;;;;21.19;49.20;100765.27;105930;1254;60433;-53
2023/09/10 10:45:47;;;;;;;3.90;2.80;;;;;;;21.40;48.73;100666.46;105908;1257;60345;-51
2023/09/10 10:48:19;;;;;;;9.00;6.40;;;;;;;21.52;48.84;100660.15;105734;1253;73135;-51
2023/09/10 10:50:47;;;;;;;14.00;8.10;;;;;;;21.64;48.74;100629.24;105942;1254;63140;-51
2023/09/10 10:53:19;;;;;;;29.60;15.20;;;;;;;21.75;49.12;100700.53;105854;1257;71362;-50
2023/09/10 10:55:50;;;;;;;17.80;12.40;;;;;;;21.96;48.01;100556.84;105857;1254;60488;-50
2023/09/10 10:58:23;;;;;;;7.30;5.20;;;;;;;22.05;47.27;100449.61;105846;1254;60430;-52
2023/09/10 11:00:53;;;;;;;8.30;2.00;;;;;;;21.96;47.77;100481.30;105874;1254;73322;-52
2023/09/10 11:03:21;;;;;;;15.20;8.30;;;;;;;21.99;48.18;100543.80;105815;1253;63381;-52
2023/09/10 11:05:52;;;;;;;73.00;43.50;;;;;;;22.12;47.79;100519.41;105860;1257;72876;-51
2023/09/10 11:08:33;;;;;;;99.00;57.00;;;;;;;22.08;47.23;100417.77;105872;1256;60370;-53
2023/09/10 11:11:08;;;;;;;100.40;57.00;;;;;;;21.96;47.82;100510.96;105877;1253;60466;-51
2023/09/10 11:14:08;;;;;;;66.70;37.90;;;;;;;21.85;48.52;100614.78;105851;1254;73791;-52
2023/09/10 11:16:44;;;;;;;61.20;33.30;;;;;;;21.99;48.43;100603.70;105835;1254;63148;-51
2023/09/10 11:19:45;;;;;;;53.30;33.30;;;;;;;22.15;49.40;100727.27;105924;1257;72617;-51
2023/09/10 11:22:13;;;;;;;44.50;28.20;;;;;;;22.43;48.04;100583.81;105996;1253;60529;-49
2023/09/10 11:24:41;;;;;;;43.60;27.20;;;;;;;22.55;47.15;100446.30;105918;1257;60358;-52
2023/09/10 11:27:23;;;;;;;37.60;22.00;;;;;;;22.50;47.38;100434.31;105888;1257;73862;-51
2023/09/10 11:30:07;;;;;;;19.60;10.70;;;;;;;22.48;47.96;100531.13;105897;1256;63466;-51
2023/09/10 11:32:36;;;;;;;17.40;9.80;;;;;;;22.57;48.72;100609.13;105918;1254;72025;-52
2023/09/10 11:35:16;;;;;;;8.00;7.10;;;;;;;22.73;47.52;100488.69;105866;1254;60539;-52
2023/09/10 11:37:52;;;;;;;8.90;6.10;;;;;;;22.55;47.02;100404.95;105873;1257;60358;-52
2023/09/10 11:40:20;;;;;;;10.50;4.90;;;;;;;22.32;48.68;100614.61;105870;1254;72548;-51
2023/09/10 11:42:48;;;;;;;10.10;5.70;;;;;;;22.44;49.36;100735.29;105914;1254;63218;-51
2023/09/10 11:45:16;;;;;;;19.70;11.50;;;;;;;22.73;49.87;100811.58;105946;1257;72635;-51
2023/09/10 11:47:46;;;;;;;15.70;9.70;;;;;;;23.00;48.42;100643.90;105858;1253;60475;-54
2023/09/10 11:50:14;;;;;;;20.30;12.00;;;;;;;23.06;47.48;100475.95;105883;1257;60338;-51
2023/09/10 11:52:41;;;;;;;21.80;15.00;;;;;;;23.02;47.29;100441.83;105687;1253;72670;-51
2023/09/10 11:55:09;;;;;;;15.20;10.30;;;;;;;22.96;47.76;100496.05;105712;1254;64464;-53
2023/09/10 11:57:37;;;;;;;10.00;7.00;;;;;;;22.89;48.25;100559.64;105681;1254;72637;-51
2023/09/10 12:00:06;;;;;;;7.20;4.90;;;;;;;22.80;49.03;100668.27;105925;1254;60508;-51
2023/09/10 12:02:40;;;;;;;2.70;2.50;;;;;;;22.91;49.19;100759.03;105896;1257;62245;-51
2023/09/10 12:05:09;;;;;;;3.40;2.00;;;;;;;22.86;48.72;100670.84;105770;1254;72821;-50
2023/09/10 12:07:36;;;;;;;2.90;2.20;;;;;;;22.60;49.04;100724.66;105841;1258;64354;-50
2023/09/10 12:10:05;;;;;;;11.20;2.20;;;;;;;22.42;50.11;100844.56;105881;1255;71469;-52
2023/09/10 12:12:33;;;;;;;2.50;2.30;;;;;;;22.55;50.19;100911.89;105903;1254;60410;-52
2023/09/10 12:15:01;;;;;;;2.20;2.00;;;;;;;22.68;50.23;100896.11;105864;1253;60326;-52
2023/09/10 12:17:29;;;;;;;5.70;3.30;;;;;;;22.82;50.08;100884.36;105747;1252;72608;-52
2023/09/10 12:19:57;;;;;;;15.00;9.00;;;;;;;22.86;50.18;100883.90;105722;1254;63070;-52
2023/09/10 12:22:25;;;;;;;17.90;12.40;;;;;;;22.85;48.81;100735.83;105888;1257;72484;-52
2023/09/10 12:24:53;;;;;;;25.80;14.90;;;;;;;22.64;49.03;100740.36;105900;1254;60533;-52
2023/09/10 12:27:20;;;;;;;23.80;16.10;;;;;;;22.51;49.28;100778.30;105745;1260;60613;-52